Time;durP1;ratioP1;P1;durP2;ratioP2;P2;SDS_P1;SDS_P2;PMS_P1;PMS_P2;Temp;Humidity;BMP_temperature;BMP_pressure;BME280_temperature;BME280_humidity;BME280_pressure;Samples;Min_cycle;Max_cycle;Signal;HPM_P1;HPM_P2
2022/11/01 00:02:08;;;;;;;30.55;19.52;;;12.20;99.90;;;;;;5058824;28;20048;-69
2022/11/01 00:04:36;;;;;;;37.97;21.55;;;12.20;99.90;;;;;;5072596;28;20097;-69
2022/11/01 00:07:03;;;;;;;34.03;19.30;;;12.30;99.90;;;;;;5071125;28;20078;-69
2022/11/01 00:09:31;;;;;;;34.50;19.73;;;12.30;99.90;;;;;;5060989;28;20364;-69
2022/11/01 00:11:58;;;;;;;30.92;18.98;;;12.30;99.90;;;;;;5067504;28;20036;-70
2022/11/01 00:14:26;;;;;;;29.35;19.52;;;12.30;99.90;;;;;;5069199;28;20135;-68
2022/11/01 00:16:53;;;;;;;30.30;18.58;;;12.30;99.90;;;;;;5066953;28;20072;-70
2022/11/01 00:19:21;;;;;;;31.42;17.90;;;12.40;99.90;;;;;;5071749;28;20068;-70
2022/11/01 00:21:48;;;;;;;30.55;16.70;;;12.30;99.90;;;;;;5070782;28;20056;-69
2022/11/01 00:24:16;;;;;;;29.60;17.13;;;12.30;99.90;;;;;;5071785;28;20379;-69
2022/11/01 00:26:43;;;;;;;25.70;16.80;;;12.20;99.90;;;;;;5071205;28;20044;-68
2022/11/01 00:29:11;;;;;;;26.77;16.10;;;12.20;99.90;;;;;;5071662;28;20041;-69
2022/11/01 00:31:39;;;;;;;35.38;17.13;;;12.20;99.90;;;;;;5068133;28;20056;-69
2022/11/01 00:34:06;;;;;;;25.50;16.27;;;12.20;99.90;;;;;;5065288;28;20071;-69
2022/11/01 00:36:35;;;;;;;23.95;15.23;;;12.10;99.90;;;;;;5052483;28;20139;-68
2022/11/01 00:39:03;;;;;;;30.45;15.98;;;12.10;99.90;;;;;;5059111;28;20055;-69
2022/11/01 00:41:31;;;;;;;24.38;14.80;;;12.00;99.90;;;;;;5054916;28;20058;-69
2022/11/01 00:43:58;;;;;;;25.80;14.82;;;12.00;99.90;;;;;;5059884;28;20087;-68
2022/11/01 00:46:25;;;;;;;26.77;14.90;;;12.00;99.90;;;;;;5048906;28;20060;-69
2022/11/01 00:48:52;;;;;;;27.20;15.70;;;11.90;99.90;;;;;;5039202;28;20075;-69
2022/11/01 00:51:20;;;;;;;26.90;14.43;;;11.90;99.90;;;;;;5051607;28;20426;-69
2022/11/01 00:53:47;;;;;;;30.70;15.90;;;11.80;99.90;;;;;;5038297;28;20569;-69
2022/11/01 00:56:15;;;;;;;24.17;15.05;;;11.80;99.90;;;;;;5064983;28;20059;-70
2022/11/01 00:58:42;;;;;;;27.17;15.07;;;11.80;99.90;;;;;;5069637;28;20082;-69
2022/11/01 01:01:09;;;;;;;26.23;15.90;;;11.80;99.90;;;;;;5071124;28;20049;-69
2022/11/01 01:03:37;;;;;;;23.92;15.15;;;11.80;99.90;;;;;;5069730;28;20049;-70
2022/11/01 01:06:04;;;;;;;25.45;14.88;;;11.80;99.90;;;;;;5070716;28;20518;-69
2022/11/01 01:08:32;;;;;;;24.50;15.35;;;11.80;99.90;;;;;;5068034;28;20067;-69
2022/11/01 01:10:59;;;;;;;28.63;15.55;;;11.80;99.90;;;;;;5071384;28;20032;-69
2022/11/01 01:13:26;;;;;;;23.70;15.65;;;11.80;99.90;;;;;;5067481;28;20045;-69
2022/11/01 01:15:54;;;;;;;28.08;15.98;;;11.80;99.90;;;;;;5070573;28;20080;-69
2022/11/01 01:18:21;;;;;;;23.17;14.13;;;11.80;99.90;;;;;;5066053;28;20496;-68
2022/11/01 01:20:48;;;;;;;25.63;15.30;;;11.80;99.90;;;;;;5068944;28;20045;-69
2022/11/01 01:23:15;;;;;;;29.40;14.60;;;11.80;99.90;;;;;;5070481;28;20115;-69
2022/11/01 01:25:43;;;;;;;27.60;15.90;;;11.80;99.90;;;;;;5069288;28;20041;-69
2022/11/01 01:28:10;;;;;;;22.27;14.77;;;11.80;99.90;;;;;;5070304;28;20041;-68
2022/11/01 01:30:40;;;;;;;25.95;16.27;;;11.70;99.90;;;;;;5069408;28;20043;-69
2022/11/01 01:33:08;;;;;;;24.20;15.32;;;11.80;99.90;;;;;;5064786;28;20380;-69
2022/11/01 01:35:37;;;;;;;24.17;15.25;;;11.70;99.90;;;;;;5056164;28;20045;-69
2022/11/01 01:38:05;;;;;;;25.85;15.30;;;11.80;99.90;;;;;;5062421;28;20033;-68
2022/11/01 01:40:34;;;;;;;30.40;16.55;;;11.80;99.90;;;;;;5059700;28;20406;-69
2022/11/01 01:43:01;;;;;;;28.55;17.98;;;11.80;99.90;;;;;;5066128;28;20047;-69
2022/11/01 01:45:35;;;;;;;28.88;16.92;;;11.80;99.90;;;;;;5069047;28;20051;-69
2022/11/01 01:48:25;;;;;;;26.73;16.55;;;11.80;99.90;;;;;;5050926;28;20086;-69
2022/11/01 01:51:02;;;;;;;25.08;15.63;;;11.80;99.90;;;;;;5068145;28;20033;-69
2022/11/01 01:53:52;;;;;;;28.02;15.90;;;11.80;99.90;;;;;;5066325;28;20052;-69
2022/11/01 01:56:31;;;;;;;28.73;17.20;;;11.80;99.90;;;;;;5062530;28;20175;-69
2022/11/01 01:59:08;;;;;;;31.75;17.20;;;11.80;99.90;;;;;;5064695;28;20444;-70
2022/11/01 02:01:38;;;;;;;28.83;16.63;;;11.90;99.90;;;;;;5068890;28;20524;-69
2022/11/01 02:04:14;;;;;;;30.65;17.60;;;11.90;99.90;;;;;;5070363;28;20036;-68
2022/11/01 02:06:41;;;;;;;30.38;17.48;;;12.00;99.90;;;;;;5059369;28;20052;-69
2022/11/01 02:09:09;;;;;;;30.65;17.45;;;12.00;99.90;;;;;;5066154;28;20044;-69
2022/11/01 02:11:36;;;;;;;28.55;17.45;;;12.00;99.90;;;;;;5062025;28;20494;-69
2022/11/01 02:14:04;;;;;;;26.90;16.98;;;12.00;99.90;;;;;;5065067;28;20419;-69
2022/11/01 02:16:41;;;;;;;29.30;17.73;;;12.00;99.90;;;;;;5062574;28;20041;-69
2022/11/01 02:19:20;;;;;;;28.08;18.30;;;12.00;99.90;;;;;;5069730;28;20140;-69
2022/11/01 02:21:48;;;;;;;26.60;18.00;;;12.00;99.90;;;;;;5070173;28;20449;-69
2022/11/01 02:24:36;;;;;;;29.88;17.15;;;12.00;99.90;;;;;;5060952;28;20032;-69
2022/11/01 02:27:13;;;;;;;29.95;16.67;;;12.00;99.90;;;;;;5048878;28;20117;-69
2022/11/01 02:30:08;;;;;;;28.27;18.05;;;12.00;99.90;;;;;;5061220;28;20087;-70
2022/11/01 02:32:54;;;;;;;34.88;17.85;;;12.00;99.90;;;;;;5068962;28;20494;-70
2022/11/01 02:35:36;;;;;;;24.67;17.42;;;12.10;99.90;;;;;;5056522;28;20647;-70
2022/11/01 02:38:21;;;;;;;32.40;17.55;;;12.10;99.90;;;;;;5064183;28;20596;-70
2022/11/01 02:41:02;;;;;;;27.00;16.75;;;12.10;99.90;;;;;;5044713;28;20138;-70
2022/11/01 02:44:01;;;;;;;32.75;17.50;;;12.10;99.90;;;;;;5057372;28;20040;-69
2022/11/01 02:49:24;;;;;;;29.92;18.08;;;12.00;99.90;;;;;;5061487;28;20041;-70
2022/11/01 02:51:52;;;;;;;32.40;18.83;;;12.10;99.90;;;;;;5075616;28;20139;-69
2022/11/01 02:54:22;;;;;;;28.85;17.58;;;12.10;99.90;;;;;;5067037;28;20048;-70
2022/11/01 02:56:50;;;;;;;28.02;17.58;;;12.10;99.90;;;;;;5069331;28;20033;-69
2022/11/01 02:59:23;;;;;;;32.40;17.88;;;12.00;99.90;;;;;;5050679;28;20406;-70
2022/11/01 03:02:17;;;;;;;26.67;16.17;;;12.00;99.90;;;;;;5067452;28;20052;-69
2022/11/01 03:04:46;;;;;;;24.02;15.73;;;12.10;99.90;;;;;;5069579;28;20426;-69
2022/11/01 03:07:15;;;;;;;29.95;17.17;;;12.00;99.90;;;;;;5045487;28;20442;-70
2022/11/01 03:09:43;;;;;;;27.33;17.55;;;12.00;99.90;;;;;;5062140;28;20153;-70
2022/11/01 03:12:24;;;;;;;30.50;16.85;;;12.00;99.90;;;;;;5066213;28;20110;-70
2022/11/01 03:15:00;;;;;;;32.10;18.90;;;12.00;99.90;;;;;;5061381;28;20064;-69
2022/11/01 03:17:42;;;;;;;28.55;18.33;;;12.00;99.90;;;;;;5068969;28;20394;-70
2022/11/01 03:20:20;;;;;;;30.45;17.85;;;12.00;99.90;;;;;;5060518;28;20045;-70
2022/11/01 03:22:57;;;;;;;32.88;18.80;;;12.00;99.90;;;;;;5063809;28;20045;-70
2022/11/01 03:25:44;;;;;;;32.35;17.90;;;12.00;99.90;;;;;;5065054;28;20097;-69
2022/11/01 03:28:11;;;;;;;28.02;18.42;;;12.10;99.90;;;;;;5060365;28;20044;-69
2022/11/01 03:30:44;;;;;;;33.85;18.45;;;12.10;99.90;;;;;;5068048;28;20070;-70
2022/11/01 03:33:13;;;;;;;30.05;17.00;;;12.00;99.90;;;;;;5067286;28;20503;-70
2022/11/01 03:35:46;;;;;;;30.92;17.90;;;12.00;99.90;;;;;;5053186;28;20186;-69
2022/11/01 03:38:17;;;;;;;29.80;17.35;;;12.00;99.90;;;;;;5066397;28;20114;-70
2022/11/01 03:40:52;;;;;;;28.70;17.15;;;12.00;99.90;;;;;;5062848;28;20055;-69
2022/11/01 03:43:22;;;;;;;31.58;17.58;;;12.00;99.90;;;;;;5067258;28;20046;-69
2022/11/01 03:45:50;;;;;;;31.35;17.45;;;12.00;99.90;;;;;;5064227;28;20499;-69
2022/11/01 03:48:17;;;;;;;28.98;18.35;;;12.10;99.90;;;;;;5061485;28;20520;-69
2022/11/01 03:50:52;;;;;;;26.83;17.98;;;12.10;99.90;;;;;;5063152;28;20048;-69
2022/11/01 03:53:20;;;;;;;32.78;18.65;;;12.10;99.90;;;;;;5068181;28;20051;-70
2022/11/01 03:55:47;;;;;;;29.92;17.58;;;12.10;99.90;;;;;;5072946;28;20439;-69
2022/11/01 03:58:14;;;;;;;35.60;18.80;;;12.10;99.90;;;;;;5070582;28;20631;-69
2022/11/01 04:00:43;;;;;;;29.02;17.60;;;12.10;99.90;;;;;;5072758;28;20471;-70
2022/11/01 04:03:11;;;;;;;50.88;28.38;;;12.10;99.90;;;;;;5063091;28;20045;-69
2022/11/01 04:05:40;;;;;;;34.13;22.23;;;12.10;99.90;;;;;;5081184;28;20586;-70
2022/11/01 04:08:10;;;;;;;31.98;18.63;;;12.10;99.90;;;;;;5063463;28;20064;-69
2022/11/01 04:10:37;;;;;;;30.08;18.42;;;12.20;99.90;;;;;;5057957;28;20040;-70
2022/11/01 04:13:05;;;;;;;37.03;18.88;;;12.20;99.90;;;;;;5071480;28;20044;-70
2022/11/01 04:21:15;;;;;;;25.70;17.15;;;12.20;99.90;;;;;;5058901;28;20041;-69
2022/11/01 04:23:43;;;;;;;30.83;17.70;;;12.10;99.90;;;;;;5071146;28;20048;-70
2022/11/01 04:26:16;;;;;;;28.25;17.00;;;12.20;99.90;;;;;;5069639;28;20040;-69
2022/11/01 04:28:55;;;;;;;27.95;17.17;;;12.20;99.90;;;;;;5065817;28;20459;-69
2022/11/01 04:31:34;;;;;;;24.60;16.63;;;12.20;99.90;;;;;;5071791;28;20048;-70
2022/11/01 04:34:03;;;;;;;27.80;16.85;;;12.20;99.90;;;;;;5071789;28;20452;-69
2022/11/01 04:36:31;;;;;;;28.15;17.20;;;12.20;99.90;;;;;;5059827;28;20455;-70
2022/11/01 04:38:58;;;;;;;26.33;15.93;;;12.20;99.90;;;;;;5063364;28;20099;-70
2022/11/01 04:41:28;;;;;;;30.13;17.17;;;12.20;99.90;;;;;;5067128;28;20056;-69
2022/11/01 04:43:57;;;;;;;25.52;16.13;;;12.30;99.90;;;;;;5066257;28;20037;-69
2022/11/01 04:46:29;;;;;;;27.65;16.55;;;12.30;99.90;;;;;;5067834;28;20462;-69
2022/11/01 04:48:56;;;;;;;28.58;17.25;;;12.30;99.90;;;;;;5065712;28;20048;-70
2022/11/01 04:51:23;;;;;;;22.73;16.05;;;12.30;99.90;;;;;;5071711;28;20336;-69
2022/11/01 04:53:51;;;;;;;28.67;17.92;;;12.30;99.90;;;;;;5071654;28;20380;-69
2022/11/01 04:56:19;;;;;;;26.67;15.30;;;12.30;99.90;;;;;;5057881;28;20495;-70
2022/11/01 04:58:46;;;;;;;24.38;15.13;;;12.30;99.90;;;;;;5071713;28;20044;-69
2022/11/01 05:01:14;;;;;;;30.88;17.02;;;12.30;99.90;;;;;;5066151;28;20033;-70
2022/11/01 05:03:41;;;;;;;27.42;17.13;;;12.30;99.90;;;;;;5069768;28;20049;-70
2022/11/01 05:06:09;;;;;;;24.75;15.30;;;12.30;99.90;;;;;;5061992;28;20048;-69
2022/11/01 05:08:36;;;;;;;27.52;15.70;;;12.30;99.90;;;;;;5067586;28;20570;-69
2022/11/01 05:11:04;;;;;;;27.73;16.02;;;12.40;99.90;;;;;;5064852;28;20051;-69
2022/11/01 05:13:31;;;;;;;26.10;16.73;;;12.40;99.90;;;;;;5065466;28;20544;-69
2022/11/01 05:16:02;;;;;;;25.05;15.98;;;12.30;99.90;;;;;;5066245;28;20577;-70
2022/11/01 05:18:45;;;;;;;23.35;16.08;;;12.30;99.90;;;;;;5067585;28;20056;-69
2022/11/01 05:21:13;;;;;;;28.92;17.08;;;12.30;99.90;;;;;;5053057;28;20108;-69
2022/11/01 05:23:40;;;;;;;22.48;16.05;;;12.30;99.90;;;;;;5070294;28;20048;-70
2022/11/01 05:26:07;;;;;;;24.90;16.35;;;12.30;99.90;;;;;;5065460;28;20037;-70
2022/11/01 05:28:34;;;;;;;26.02;16.55;;;12.30;99.90;;;;;;5064490;28;20044;-70
2022/11/01 05:31:02;;;;;;;26.52;16.80;;;12.40;99.90;;;;;;5066782;28;20137;-69
2022/11/01 05:33:29;;;;;;;30.48;17.38;;;12.40;99.90;;;;;;5064567;28;20582;-69
2022/11/01 05:35:59;;;;;;;31.80;16.98;;;12.40;99.90;;;;;;5049713;28;20056;-69
2022/11/01 05:38:27;;;;;;;28.73;17.73;;;12.40;99.90;;;;;;5047664;28;20361;-69
2022/11/01 05:40:55;;;;;;;28.38;17.73;;;12.40;99.90;;;;;;5055691;28;20483;-69
2022/11/01 05:43:22;;;;;;;26.65;17.70;;;12.40;99.90;;;;;;5063984;28;20066;-70
2022/11/01 05:45:50;;;;;;;31.92;17.92;;;12.40;99.90;;;;;;5064192;28;20288;-69
2022/11/01 05:48:17;;;;;;;27.38;16.73;;;12.40;99.90;;;;;;5056221;28;20041;-70
2022/11/01 05:50:45;;;;;;;31.17;17.08;;;12.40;99.90;;;;;;5066641;28;20044;-70
2022/11/01 05:53:13;;;;;;;26.17;17.30;;;12.30;99.90;;;;;;5058309;28;20051;-69
2022/11/01 05:55:40;;;;;;;28.00;17.25;;;12.30;99.90;;;;;;5058923;28;20109;-69
2022/11/01 05:58:08;;;;;;;27.10;18.20;;;12.30;99.90;;;;;;5058786;28;20048;-69
2022/11/01 06:00:35;;;;;;;29.65;18.00;;;12.30;99.90;;;;;;5059482;28;20055;-69
2022/11/01 06:03:03;;;;;;;29.95;18.17;;;12.40;99.90;;;;;;5058354;28;20495;-69
2022/11/01 06:05:32;;;;;;;25.02;17.58;;;12.40;99.90;;;;;;5060223;28;20179;-69
2022/11/01 06:08:01;;;;;;;24.30;16.48;;;12.30;99.90;;;;;;5058671;28;20049;-69
2022/11/01 06:10:28;;;;;;;27.30;15.80;;;12.40;99.90;;;;;;5063105;28;20138;-70
2022/11/01 06:12:56;;;;;;;22.25;15.18;;;12.40;99.90;;;;;;5056454;28;20033;-69
2022/11/01 06:15:23;;;;;;;24.70;15.98;;;12.30;99.90;;;;;;5065176;28;20467;-70
2022/11/01 06:17:57;;;;;;;21.85;15.70;;;12.30;99.90;;;;;;5058995;28;20511;-69
2022/11/01 06:20:28;;;;;;;24.13;15.75;;;12.30;99.90;;;;;;5061038;28;20510;-69
2022/11/01 06:22:59;;;;;;;25.75;17.17;;;12.30;99.90;;;;;;5059950;28;20049;-70
2022/11/01 06:25:27;;;;;;;26.63;17.03;;;12.30;99.90;;;;;;5065935;28;20037;-69
2022/11/01 06:27:54;;;;;;;29.17;17.73;;;12.40;99.90;;;;;;5074833;28;20615;-70
2022/11/01 06:30:22;;;;;;;24.25;15.55;;;12.40;99.90;;;;;;5065839;28;20079;-70
2022/11/01 06:32:49;;;;;;;23.45;15.30;;;12.40;99.90;;;;;;5061541;28;20041;-68
2022/11/01 06:35:17;;;;;;;21.83;14.90;;;12.40;99.90;;;;;;5059292;28;20044;-70
2022/11/01 06:37:45;;;;;;;24.10;15.15;;;12.40;99.90;;;;;;5052287;28;20589;-68
2022/11/01 06:40:12;;;;;;;25.17;13.93;;;12.50;99.90;;;;;;5051047;28;20477;-69
2022/11/01 06:42:40;;;;;;;22.15;13.75;;;12.50;99.90;;;;;;5064511;28;20055;-68
2022/11/01 06:45:13;;;;;;;20.75;13.85;;;12.60;99.90;;;;;;5052279;28;20040;-70
2022/11/01 06:47:45;;;;;;;21.90;14.55;;;12.60;99.90;;;;;;5053153;28;20060;-70
2022/11/01 06:50:12;;;;;;;20.13;13.15;;;12.70;99.90;;;;;;5051198;28;20040;-69
2022/11/01 06:52:40;;;;;;;21.58;14.30;;;12.70;99.90;;;;;;5047640;28;20060;-69
2022/11/01 06:55:10;;;;;;;20.63;13.18;;;12.70;99.90;;;;;;5055416;28;20110;-69
2022/11/01 06:57:37;;;;;;;19.42;14.07;;;12.80;99.90;;;;;;5063202;28;20052;-69
2022/11/01 07:00:05;;;;;;;22.42;12.90;;;12.70;99.90;;;;;;5064280;28;20388;-68
2022/11/01 07:02:33;;;;;;;21.77;13.15;;;12.80;99.90;;;;;;5056917;28;20058;-69
2022/11/01 07:05:00;;;;;;;21.50;14.52;;;12.90;99.90;;;;;;5048674;28;20075;-69
2022/11/01 07:07:27;;;;;;;24.23;14.85;;;12.80;99.90;;;;;;5057899;28;20124;-70
2022/11/01 07:09:55;;;;;;;22.58;12.63;;;12.80;99.90;;;;;;5061241;28;20446;-69
2022/11/01 07:12:22;;;;;;;21.90;12.95;;;12.90;99.90;;;;;;5067741;28;20043;-68
2022/11/01 07:14:49;;;;;;;23.27;12.88;;;13.00;99.90;;;;;;5068255;28;20051;-68
2022/11/01 07:17:16;;;;;;;25.83;14.35;;;13.10;99.90;;;;;;5054228;28;20052;-68
2022/11/01 07:19:44;;;;;;;24.15;15.90;;;13.10;99.90;;;;;;5064296;28;20472;-69
2022/11/01 07:22:13;;;;;;;22.05;15.73;;;13.10;99.90;;;;;;5057913;28;20048;-68
2022/11/01 07:24:40;;;;;;;21.75;13.70;;;13.20;99.90;;;;;;5070882;28;20062;-69
2022/11/01 07:27:07;;;;;;;20.30;12.77;;;13.30;99.90;;;;;;5063105;28;20051;-68
2022/11/01 07:29:34;;;;;;;20.15;11.55;;;13.30;99.90;;;;;;5056035;28;20495;-69
2022/11/01 07:32:02;;;;;;;22.85;14.75;;;13.40;99.90;;;;;;5066686;28;20033;-68
2022/11/01 07:34:30;;;;;;;20.67;12.98;;;13.50;99.90;;;;;;5071112;28;20071;-69
2022/11/01 07:36:58;;;;;;;21.60;12.43;;;13.60;99.90;;;;;;5070882;28;20040;-68
2022/11/01 07:39:25;;;;;;;18.27;12.77;;;13.60;99.90;;;;;;5052008;28;20071;-68
2022/11/01 07:41:53;;;;;;;20.77;12.10;;;13.70;99.90;;;;;;5050728;28;20037;-68
2022/11/01 07:44:20;;;;;;;20.67;12.15;;;13.70;99.90;;;;;;5057665;28;20156;-67
2022/11/01 07:46:47;;;;;;;21.20;13.30;;;13.70;99.90;;;;;;5055285;28;20120;-69
2022/11/01 07:49:15;;;;;;;24.30;14.95;;;13.80;99.90;;;;;;5058743;28;20293;-69
2022/11/01 07:51:42;;;;;;;19.80;14.05;;;13.80;99.90;;;;;;5073349;28;20192;-69
2022/11/01 07:54:10;;;;;;;21.27;12.52;;;13.80;99.90;;;;;;5057810;28;20593;-68
2022/11/01 07:56:37;;;;;;;17.88;12.00;;;13.90;99.90;;;;;;5072090;28;20514;-67
2022/11/01 07:59:05;;;;;;;15.00;11.00;;;13.90;99.90;;;;;;5071329;28;20044;-69
2022/11/01 08:01:32;;;;;;;15.85;11.80;;;14.00;99.90;;;;;;5061627;28;20044;-68
2022/11/01 08:04:00;;;;;;;17.83;11.48;;;13.90;99.90;;;;;;5052546;28;20044;-68
2022/11/01 08:06:27;;;;;;;17.73;11.50;;;14.00;99.90;;;;;;5057864;28;20075;-67
2022/11/01 08:08:54;;;;;;;14.57;10.32;;;14.00;99.90;;;;;;5056465;28;20036;-69
2022/11/01 08:11:23;;;;;;;19.77;11.95;;;14.10;99.90;;;;;;5055501;28;20124;-69
2022/11/01 08:13:50;;;;;;;15.07;10.57;;;14.10;99.90;;;;;;5060833;28;20040;-69
2022/11/01 08:16:17;;;;;;;21.40;11.13;;;14.20;99.90;;;;;;5053524;28;20097;-68
2022/11/01 08:18:45;;;;;;;14.60;10.15;;;14.30;99.90;;;;;;5063657;28;20083;-68
2022/11/01 08:21:17;;;;;;;17.95;10.05;;;14.40;99.90;;;;;;5053951;28;20071;-68
2022/11/01 08:23:45;;;;;;;17.75;10.98;;;14.50;99.90;;;;;;5050794;28;20051;-68
2022/11/01 08:26:13;;;;;;;15.70;9.75;;;14.60;99.90;;;;;;5055870;28;20037;-70
2022/11/01 08:28:41;;;;;;;15.82;9.60;;;14.70;99.90;;;;;;5064776;28;20032;-68
2022/11/01 08:31:09;;;;;;;15.48;9.45;;;14.80;99.90;;;;;;5053112;28;20060;-68
2022/11/01 08:33:37;;;;;;;14.63;10.38;;;14.80;99.90;;;;;;5062708;28;20032;-67
2022/11/01 08:36:04;;;;;;;16.83;11.13;;;14.80;99.90;;;;;;5067416;28;20112;-68
2022/11/01 08:38:32;;;;;;;15.13;9.20;;;15.00;99.90;;;;;;5065474;28;20068;-68
2022/11/01 08:40:59;;;;;;;18.33;10.68;;;15.20;99.90;;;;;;5074053;28;20049;-67
2022/11/01 08:43:26;;;;;;;18.60;9.73;;;15.30;99.90;;;;;;5056350;28;20055;-67
2022/11/01 08:45:54;;;;;;;14.55;9.40;;;15.30;99.90;;;;;;5043952;28;20071;-68
2022/11/01 08:48:21;;;;;;;14.85;9.10;;;15.40;99.90;;;;;;5063196;28;20548;-68
2022/11/01 08:50:48;;;;;;;12.90;8.82;;;15.50;99.90;;;;;;5070867;28;20502;-68
2022/11/01 08:53:16;;;;;;;14.60;8.70;;;15.50;99.90;;;;;;5069678;28;20052;-67
2022/11/01 08:55:43;;;;;;;16.42;8.88;;;15.60;99.90;;;;;;5061161;28;20037;-67
2022/11/01 08:58:11;;;;;;;12.27;8.35;;;15.80;99.90;;;;;;5055965;28;20455;-67
2022/11/01 09:00:38;;;;;;;12.93;8.88;;;16.00;99.90;;;;;;5025250;28;1188821;-68
2022/11/01 09:03:05;;;;;;;15.20;8.23;;;16.10;99.90;;;;;;5065162;28;20048;-68
2022/11/01 09:05:33;;;;;;;12.70;8.02;;;16.20;99.90;;;;;;5043875;28;20036;-68
2022/11/01 09:08:00;;;;;;;9.65;7.35;;;16.30;99.90;;;;;;5065601;28;20059;-68
2022/11/01 09:10:29;;;;;;;14.38;7.97;;;16.40;99.90;;;;;;5067051;28;20131;-68
2022/11/01 09:12:58;;;;;;;13.50;8.20;;;16.60;99.90;;;;;;5055651;28;20299;-69
2022/11/01 09:15:26;;;;;;;11.73;7.32;;;16.80;99.90;;;;;;5081315;28;20430;-67
2022/11/01 09:17:53;;;;;;;23.75;13.55;;;17.10;99.90;;;;;;5069994;28;20047;-68
2022/11/01 09:20:21;;;;;;;15.20;8.82;;;17.30;99.90;;;;;;5057895;28;20060;-68
2022/11/01 09:22:51;;;;;;;19.85;11.05;;;17.40;99.90;;;;;;5065680;28;20053;-69
2022/11/01 09:25:19;;;;;;;14.15;8.50;;;17.60;99.90;;;;;;5050968;28;20094;-68
2022/11/01 09:27:46;;;;;;;12.35;7.78;;;17.80;99.90;;;;;;5063458;28;20048;-69
2022/11/01 09:30:13;;;;;;;11.88;7.05;;;18.00;99.90;;;;;;5049227;28;20139;-70
2022/11/01 09:32:40;;;;;;;10.00;6.93;;;18.10;99.90;;;;;;5060172;28;20107;-68
2022/11/01 09:35:08;;;;;;;15.23;8.00;;;18.20;99.90;;;;;;5063762;28;20067;-69
2022/11/01 09:37:35;;;;;;;11.02;6.25;;;18.20;99.90;;;;;;5068608;28;20040;-69
2022/11/01 09:40:03;;;;;;;14.15;6.60;;;18.20;99.90;;;;;;5070314;28;20040;-68
2022/11/01 09:42:35;;;;;;;8.82;5.72;;;18.20;99.90;;;;;;5068339;28;20502;-68
2022/11/01 09:45:09;;;;;;;10.68;5.22;;;18.20;99.90;;;;;;5039206;28;20144;-68
2022/11/01 09:47:36;;;;;;;7.93;5.20;;;18.30;99.90;;;;;;5058812;28;20586;-69
2022/11/01 09:50:36;;;;;;;10.95;5.85;;;18.30;99.90;;;;;;5056910;28;20103;-69
2022/11/01 09:53:08;;;;;;;9.48;5.05;;;18.10;99.90;;;;;;5059563;28;20590;-70
2022/11/01 09:56:11;;;;;;;11.75;6.25;;;18.10;99.90;;;;;;5068686;28;20515;-69
2022/11/01 09:59:07;;;;;;;14.80;7.10;;;18.20;99.90;;;;;;5068535;28;20415;-69
2022/11/01 10:01:49;;;;;;;8.20;5.80;;;18.20;99.90;;;;;;5064298;28;20045;-68
2022/11/01 10:04:38;;;;;;;8.55;4.35;;;18.20;99.90;;;;;;5061381;28;20037;-69
2022/11/01 10:07:33;;;;;;;10.85;5.15;;;18.20;99.90;;;;;;5078965;28;20064;-68
2022/11/01 10:10:31;;;;;;;9.75;5.68;;;18.30;99.90;;;;;;5053353;28;20053;-68
2022/11/01 10:13:20;;;;;;;;;;;18.20;99.90;;;;;;5071009;28;20086;-69
2022/11/01 10:16:06;;;;;;;8.65;4.80;;;18.40;99.90;;;;;;5054339;28;19971;-69
2022/11/01 10:19:02;;;;;;;9.90;5.00;;;18.40;99.90;;;;;;5058968;28;20052;-68
2022/11/01 10:21:41;;;;;;;9.88;4.55;;;18.50;99.90;;;;;;5061418;28;20522;-68
2022/11/01 10:24:24;;;;;;;10.15;4.50;;;18.20;99.90;;;;;;5063470;28;20155;-69
2022/11/01 10:26:58;;;;;;;10.20;5.15;;;18.20;99.90;;;;;;5062850;28;20036;-69
2022/11/01 10:29:40;;;;;;;12.10;5.20;;;18.00;99.90;;;;;;5056890;28;20071;-70
2022/11/01 10:32:50;;;;;;;7.93;4.28;;;18.00;99.90;;;;;;5067126;28;20046;-70
2022/11/01 10:35:26;;;;;;;9.05;4.60;;;17.90;99.90;;;;;;5056798;28;20048;-70
2022/11/01 10:38:19;;;;;;;11.15;4.60;;;17.80;99.90;;;;;;5058069;28;20055;-71
2022/11/01 10:41:27;;;;;;;11.02;4.78;;;17.80;99.90;;;;;;5073184;28;20087;-70
2022/11/01 10:44:01;;;;;;;8.35;4.40;;;17.70;99.90;;;;;;5056622;28;20060;-70
2022/11/01 10:46:35;;;;;;;9.27;4.88;;;17.80;99.90;;;;;;5065322;28;20046;-70
2022/11/01 10:49:23;;;;;;;7.40;4.47;;;18.00;99.90;;;;;;5059129;28;20067;-70
2022/11/01 10:52:10;;;;;;;9.18;4.50;;;18.20;99.90;;;;;;5052414;28;20041;-70
2022/11/01 10:54:40;;;;;;;6.43;4.90;;;18.20;99.90;;;;;;5069324;28;20688;-70
2022/11/01 10:57:26;;;;;;;9.52;5.20;;;18.20;99.90;;;;;;5077763;28;20066;-70
2022/11/01 10:59:56;;;;;;;8.85;5.65;;;18.40;99.90;;;;;;5067168;28;20063;-70
2022/11/01 11:02:30;;;;;;;9.60;4.38;;;18.40;99.90;;;;;;5065394;28;20052;-69
2022/11/01 11:04:58;;;;;;;7.90;4.00;;;18.50;99.90;;;;;;5058243;28;20165;-70
2022/11/01 11:07:30;;;;;;;10.95;4.07;;;18.50;99.90;;;;;;5066755;28;20052;-69
2022/11/01 11:10:01;;;;;;;;;;;18.50;99.90;;;;;;5066425;28;20365;-70
2022/11/01 11:12:30;;;;;;;7.63;3.80;;;18.80;99.90;;;;;;5057287;28;19920;-70
2022/11/01 11:15:15;;;;;;;9.13;4.00;;;19.20;99.90;;;;;;5067260;28;20051;-68
2022/11/01 11:17:45;;;;;;;8.68;4.20;;;20.10;99.90;;;;;;5052127;28;20083;-68
2022/11/01 11:20:20;;;;;;;8.73;3.80;;;20.90;99.90;;;;;;5055198;28;20103;-69
2022/11/01 11:22:48;;;;;;;4.97;3.40;;;21.30;99.90;;;;;;5059151;28;20082;-68
2022/11/01 11:25:19;;;;;;;7.70;3.40;;;21.00;99.90;;;;;;5052360;28;20073;-69
2022/11/01 11:27:49;;;;;;;6.13;3.70;;;20.70;99.90;;;;;;5062488;28;20372;-69
2022/11/01 11:30:31;;;;;;;7.22;3.25;;;20.80;99.90;;;;;;5063477;28;20135;-69
2022/11/01 11:33:01;;;;;;;6.35;3.78;;;20.70;99.90;;;;;;5065806;28;20113;-69
2022/11/01 11:35:31;;;;;;;8.45;3.67;;;20.80;99.90;;;;;;5057869;28;20069;-69
2022/11/01 11:38:05;;;;;;;6.50;3.72;;;20.60;99.90;;;;;;5066912;28;20150;-69
2022/11/01 11:40:42;;;;;;;8.00;3.40;;;20.80;99.90;;;;;;5077573;28;20458;-70
2022/11/01 11:43:22;;;;;;;5.40;3.20;;;20.90;99.90;;;;;;5072025;28;20056;-69
2022/11/01 11:46:20;;;;;;;7.07;3.50;;;20.80;99.90;;;;;;5073135;28;20494;-68
2022/11/01 11:48:59;;;;;;;6.57;3.20;;;20.70;99.90;;;;;;5081061;28;20102;-69
2022/11/01 11:51:29;;;;;;;6.20;3.40;;;20.60;99.90;;;;;;5063473;28;20048;-69
2022/11/01 11:54:27;;;;;;;6.88;3.40;;;20.70;99.90;;;;;;5061542;28;20456;-69
2022/11/01 11:57:18;;;;;;;6.93;3.50;;;20.50;99.90;;;;;;5068188;28;20056;-69
2022/11/01 11:59:54;;;;;;;7.15;3.45;;;20.20;99.90;;;;;;5055141;28;20480;-70
2022/11/01 12:02:25;;;;;;;5.00;3.42;;;20.10;99.90;;;;;;5068485;28;20047;-69
2022/11/01 12:04:59;;;;;;;5.75;3.45;;;20.50;99.90;;;;;;5055043;28;20056;-68
2022/11/01 12:07:53;;;;;;;7.68;3.50;;;21.00;99.90;;;;;;5059188;28;20068;-69
2022/11/01 12:10:36;;;;;;;5.35;3.30;;;21.50;99.90;;;;;;5067593;28;20052;-68
2022/11/01 12:13:32;;;;;;;6.28;3.58;;;21.40;99.90;;;;;;5065191;28;20049;-69
2022/11/01 12:16:12;;;;;;;7.82;3.45;;;21.10;99.90;;;;;;5066847;28;20053;-69
2022/11/01 12:19:20;;;;;;;7.35;3.42;;;20.70;99.90;;;;;;5065510;28;20056;-69
2022/11/01 12:21:48;;;;;;;9.02;3.35;;;20.20;99.90;;;;;;5064836;28;20048;-69
2022/11/01 12:24:30;;;;;;;5.00;3.30;;;19.60;99.90;;;;;;5054219;28;20091;-69
2022/11/01 12:27:09;;;;;;;4.38;3.33;;;19.40;99.90;;;;;;5045236;28;20156;-69
2022/11/01 12:29:43;;;;;;;7.13;3.20;;;19.30;99.90;;;;;;5050408;28;20685;-69
2022/11/01 12:32:20;;;;;;;7.57;2.97;;;19.10;99.90;;;;;;5051907;28;20387;-69
2022/11/01 12:34:50;;;;;;;4.22;2.70;;;18.80;99.90;;;;;;5055486;28;20123;-70
2022/11/01 12:37:24;;;;;;;4.10;2.58;;;18.60;99.90;;;;;;5052958;28;20041;-70
2022/11/01 12:40:18;;;;;;;5.10;3.25;;;18.60;99.90;;;;;;5057161;28;20115;-70
2022/11/01 12:43:02;;;;;;;5.70;3.42;;;18.50;99.90;;;;;;5068877;28;20048;-69
2022/11/01 12:45:41;;;;;;;5.63;2.95;;;18.40;99.90;;;;;;5070809;28;20539;-68
2022/11/01 12:48:12;;;;;;;5.60;2.95;;;18.40;99.90;;;;;;5068190;28;20099;-68
2022/11/01 12:50:48;;;;;;;5.10;2.75;;;18.30;99.90;;;;;;5029513;28;20048;-69
2022/11/01 12:53:27;;;;;;;6.47;3.03;;;18.30;99.90;;;;;;5059329;28;20037;-69
2022/11/01 12:55:57;;;;;;;4.43;2.50;;;18.30;99.90;;;;;;5066190;28;20049;-70
2022/11/01 12:58:25;;;;;;;4.38;2.80;;;18.30;99.90;;;;;;5058383;28;20581;-69
2022/11/01 13:01:10;;;;;;;4.82;3.10;;;18.40;99.90;;;;;;5061380;28;20070;-68
2022/11/01 13:03:52;;;;;;;7.32;3.63;;;18.50;99.90;;;;;;5068885;28;20048;-68
2022/11/01 13:06:50;;;;;;;4.70;3.08;;;18.50;99.90;;;;;;5070440;28;20122;-69
2022/11/01 13:09:55;;;;;;;5.88;3.13;;;18.50;99.90;;;;;;5061310;28;20052;-69